This demonstration page uses our WeatherBlox Daily Observations layout. Learn more.

36.17497, -115.13722

Hourly Observations for March 25, 2018

Temp ( °F °C ) Dew Point ( °F °C ) Humidity (%) Winds ( mph kmh ) Pressure ( in mb ) Visibility ( mi km ) Precip ( " mm )
12:53 am 00:53 Clear 55 12.8 23 -5 29 29 SW 12 19 29.81 1010 10 16.0934 0 0
1:53 am 01:53 Clear 53 11.7 23 -5 31 31 S 13 20 29.81 1009 10 16.0934 0 0
2:53 am 02:53 Clear 52 11.1 25 -3.9 35 35 S 14 22 29.8 1009 10 16.0934 0 0
3:53 am 03:53 Clear 51 10.6 24 -4.4 35 35 SW 8 13 29.79 1009 10 16.0934 0 0
4:53 am 04:53 Clear 50 10 24 -4.4 36 36 W 6 9 29.8 1009 10 16.0934 0 0
5:53 am 05:53 Clear 47 8.3 27 -2.8 46 46 WNW 7 11 29.83 1010 10 16.0934 0 0
6:53 am 06:53 Sunny 47 8.3 29 -1.7 50 50 WNW 6 9 29.85 1011 10 16.0934 0 0
7:53 am 07:53 Sunny 47 8.3 29 -1.7 50 50 SSE 3 6 29.87 1012 10 16.0934 0 0
8:53 am 08:53 Sunny 51 10.6 25 -3.9 36 36 Calm 29.9 1012 10 16.0934 0 0
9:53 am 09:53 Sunny 56 13.3 26 -3.3 32 32 Calm 29.9 1013 10 16.0934 0 0
10:53 am 10:53 Sunny 57 13.9 25 -3.9 29 29 Calm 29.9 1012 10 16.0934 0 0
11:53 am 11:53 Sunny 60 15.6 25 -3.9 26 26 SSE 9 15 29.89 1012 10 16.0934 0 0
12:53 pm 12:53 Sunny 62 16.7 24 -4.4 23 23 SE 13 20 29.86 1011 10 16.0934 0 0
1:53 pm 13:53 Sunny 63 17.2 23 -5 22 22 E 8 13 29.85 1011 10 16.0934 0 0
2:53 pm 14:53 Sunny 65 18.3 21 -6.1 19 19 VRB 3 6 29.82 1010 10 16.0934 0 0
3:53 pm 15:53 Sunny 65 18.3 16 -8.9 15 15 W 9 15 29.81 1010 10 16.0934 0 0
4:53 pm 16:53 Sunny 64 17.8 17 -8.3 16 16 S 7 11 29.81 1010 10 16.0934 0 0
5:53 pm 17:53 Sunny 65 18.3 19 -7.2 17 17 N 14 22 29.81 1010 10 16.0934 0 0
6:53 pm 18:53 Sunny 63 17.2 16 -8.9 16 16 NNW 13 20 29.83 1010 10 16.0934 0 0
7:53 pm 19:53 Clear 61 16.1 18 -7.8 19 19 WNW 8 13 29.84 1010 10 16.0934 0 0
8:53 pm 20:53 Clear 60 15.6 19 -7.2 20 20 W 8 13 29.85 1011 10 16.0934 0 0
9:53 pm 21:53 Clear 57 13.9 19 -7.2 23 23 NNW 9 15 29.87 1012 10 16.0934 0 0
10:53 pm 22:53 Clear 58 14.4 8 -13.3 13 13 NNW 17 28 29.87 1012 10 16.0934 0 0
11:53 pm 23:53 Clear 55 12.8 16 -8.9 21 21 NNW 28 44 29.88 1012 10 16.0934 0 0

Powered by AerisWeather